sensor_id;sensor_type;location;lat;lon;timestamp;temperature;humidity
16140;DHT22;8175;49.326;12.690;2022-11-20T07:59:25;0.80;99.90
16140;DHT22;8175;49.326;12.690;2022-11-20T08:01:50;0.80;99.90
16140;DHT22;8175;49.326;12.690;2022-11-20T08:04:16;0.80;99.90
16140;DHT22;8175;49.326;12.690;2022-11-20T08:06:42;0.80;99.90
16140;DHT22;8175;49.326;12.690;2022-11-20T08:20:20;0.90;99.90
16140;DHT22;8175;49.326;12.690;2022-11-20T08:22:45;1.00;99.90
16140;DHT22;8175;49.326;12.690;2022-11-20T08:25:11;1.00;99.90
16140;DHT22;8175;49.326;12.690;2022-11-20T08:27:37;1.10;99.90
16140;DHT22;8175;49.326;12.690;2022-11-20T08:30:02;1.10;99.90
16140;DHT22;8175;49.326;12.690;2022-11-20T08:32:29;1.20;99.90
16140;DHT22;8175;49.326;12.690;2022-11-20T08:34:55;1.20;99.90
16140;DHT22;8175;49.326;12.690;2022-11-20T08:37:21;1.30;99.90
16140;DHT22;8175;49.326;12.690;2022-11-20T08:46:08;1.30;99.90
16140;DHT22;8175;49.326;12.690;2022-11-20T08:48:33;1.30;99.90
16140;DHT22;8175;49.326;12.690;2022-11-20T09:03:04;1.20;99.90
16140;DHT22;8175;49.326;12.690;2022-11-20T09:05:30;1.20;99.90
16140;DHT22;8175;49.326;12.690;2022-11-20T09:10:31;1.30;99.90
16140;DHT22;8175;49.326;12.690;2022-11-20T09:12:57;1.30;99.90
16140;DHT22;8175;49.326;12.690;2022-11-20T09:31:58;1.30;99.90
16140;DHT22;8175;49.326;12.690;2022-11-20T09:34:24;1.40;99.90
16140;DHT22;8175;49.326;12.690;2022-11-20T09:36:49;1.40;99.90
16140;DHT22;8175;49.326;12.690;2022-11-20T09:39:15;1.50;99.90
16140;DHT22;8175;49.326;12.690;2022-11-20T09:47:11;1.50;99.90
16140;DHT22;8175;49.326;12.690;2022-11-20T09:57:03;1.70;99.90
16140;DHT22;8175;49.326;12.690;2022-11-20T09:59:43;1.70;99.90
16140;DHT22;8175;49.326;12.690;2022-11-20T10:02:28;1.60;99.90
16140;DHT22;8175;49.326;12.690;2022-11-20T10:05:22;1.60;99.90
16140;DHT22;8175;49.326;12.690;2022-11-20T10:13:35;1.80;99.90
16140;DHT22;8175;49.326;12.690;2022-11-20T10:46:01;2.10;99.90
16140;DHT22;8175;49.326;12.690;2022-11-20T10:48:31;2.10;99.90
16140;DHT22;8175;49.326;12.690;2022-11-20T10:51:03;2.10;99.90
16140;DHT22;8175;49.326;12.690;2022-11-20T10:56:05;2.10;99.90
16140;DHT22;8175;49.326;12.690;2022-11-20T11:01:41;2.20;99.90
16140;DHT22;8175;49.326;12.690;2022-11-20T11:09:54;2.20;99.90
16140;DHT22;8175;49.326;12.690;2022-11-20T11:12:24;2.20;99.90
16140;DHT22;8175;49.326;12.690;2022-11-20T11:14:52;2.30;99.90
16140;DHT22;8175;49.326;12.690;2022-11-20T11:17:31;2.30;99.90
16140;DHT22;8175;49.326;12.690;2022-11-20T11:25:41;2.30;99.90
16140;DHT22;8175;49.326;12.690;2022-11-20T11:30:43;2.30;99.90
16140;DHT22;8175;49.326;12.690;2022-11-20T11:33:12;2.20;99.90
16140;DHT22;8175;49.326;12.690;2022-11-20T11:35:49;2.30;99.90
16140;DHT22;8175;49.326;12.690;2022-11-20T11:38:19;2.40;99.90
16140;DHT22;8175;49.326;12.690;2022-11-20T11:40:46;2.40;99.90
16140;DHT22;8175;49.326;12.690;2022-11-20T11:43:19;2.50;99.90
16140;DHT22;8175;49.326;12.690;2022-11-20T11:54:55;2.50;99.90
16140;DHT22;8175;49.326;12.690;2022-11-20T12:00:19;2.60;99.90
16140;DHT22;8175;49.326;12.690;2022-11-20T12:07:56;2.60;99.90
16140;DHT22;8175;49.326;12.690;2022-11-20T12:15:53;2.70;99.90
16140;DHT22;8175;49.326;12.690;2022-11-20T12:18:21;2.70;99.90
16140;DHT22;8175;49.326;12.690;2022-11-20T12:21:04;2.80;99.90
16140;DHT22;8175;49.326;12.690;2022-11-20T12:37:33;2.80;99.90
16140;DHT22;8175;49.326;12.690;2022-11-20T12:40:15;2.90;99.90
16140;DHT22;8175;49.326;12.690;2022-11-20T12:51:18;3.00;99.90
16140;DHT22;8175;49.326;12.690;2022-11-20T12:59:23;3.10;99.90
16140;DHT22;8175;49.326;12.690;2022-11-20T13:02:23;3.10;99.90
16140;DHT22;8175;49.326;12.690;2022-11-20T13:07:29;3.10;99.90
16140;DHT22;8175;49.326;12.690;2022-11-20T13:09:55;3.10;99.90
16140;DHT22;8175;49.326;12.690;2022-11-20T13:12:36;3.20;99.90
16140;DHT22;8175;49.326;12.690;2022-11-20T13:15:23;3.20;99.90
16140;DHT22;8175;49.326;12.690;2022-11-20T13:18:00;3.20;99.90
16140;DHT22;8175;49.326;12.690;2022-11-20T13:20:27;3.30;99.90
16140;DHT22;8175;49.326;12.690;2022-11-20T13:22:54;3.30;99.90
16140;DHT22;8175;49.326;12.690;2022-11-20T13:25:27;3.40;99.90
16140;DHT22;8175;49.326;12.690;2022-11-20T13:27:55;3.40;99.90
16140;DHT22;8175;49.326;12.690;2022-11-20T13:30:23;3.40;99.90
16140;DHT22;8175;49.326;12.690;2022-11-20T13:35:34;3.40;99.90
16140;DHT22;8175;49.326;12.690;2022-11-20T13:38:05;3.40;99.90
16140;DHT22;8175;49.326;12.690;2022-11-20T13:40:32;3.30;99.90
16140;DHT22;8175;49.326;12.690;2022-11-20T13:43:11;3.30;99.90
16140;DHT22;8175;49.326;12.690;2022-11-20T13:45:40;3.30;99.90
16140;DHT22;8175;49.326;12.690;2022-11-20T13:48:22;3.40;99.90
16140;DHT22;8175;49.326;12.690;2022-11-20T13:59:49;3.20;99.90
16140;DHT22;8175;49.326;12.690;2022-11-20T14:02:20;3.20;99.90
16140;DHT22;8175;49.326;12.690;2022-11-20T14:04:49;3.20;99.90
16140;DHT22;8175;49.326;12.690;2022-11-20T14:07:17;3.20;99.90
16140;DHT22;8175;49.326;12.690;2022-11-20T14:09:55;3.20;99.90
16140;DHT22;8175;49.326;12.690;2022-11-20T14:12:30;3.10;99.90
16140;DHT22;8175;49.326;12.690;2022-11-20T14:14:56;3.20;99.90
16140;DHT22;8175;49.326;12.690;2022-11-20T14:17:33;3.10;99.90
16140;DHT22;8175;49.326;12.690;2022-11-20T14:20:06;3.00;99.90
16140;DHT22;8175;49.326;12.690;2022-11-20T14:22:37;3.00;99.90
16140;DHT22;8175;49.326;12.690;2022-11-20T14:27:39;3.00;99.90
16140;DHT22;8175;49.326;12.690;2022-11-20T14:30:12;3.00;99.90
16140;DHT22;8175;49.326;12.690;2022-11-20T14:32:39;3.00;99.90
16140;DHT22;8175;49.326;12.690;2022-11-20T14:35:13;3.00;99.90
16140;DHT22;8175;49.326;12.690;2022-11-20T14:37:40;2.90;99.90
16140;DHT22;8175;49.326;12.690;2022-11-20T14:42:52;3.00;99.90
16140;DHT22;8175;49.326;12.690;2022-11-20T14:45:18;2.90;99.90
16140;DHT22;8175;49.326;12.690;2022-11-20T14:47:45;3.00;99.90
16140;DHT22;8175;49.326;12.690;2022-11-20T14:50:22;3.00;99.90
16140;DHT22;8175;49.326;12.690;2022-11-20T14:57:57;2.80;99.90
16140;DHT22;8175;49.326;12.690;2022-11-20T15:00:24;2.80;99.90
16140;DHT22;8175;49.326;12.690;2022-11-20T15:02:51;2.80;99.90
16140;DHT22;8175;49.326;12.690;2022-11-20T15:05:19;2.90;99.90
16140;DHT22;8175;49.326;12.690;2022-11-20T15:07:48;2.80;99.90
16140;DHT22;8175;49.326;12.690;2022-11-20T15:10:23;2.80;99.90
16140;DHT22;8175;49.326;12.690;2022-11-20T15:12:54;2.90;99.90
16140;DHT22;8175;49.326;12.690;2022-11-20T15:15:32;2.80;99.90
16140;DHT22;8175;49.326;12.690;2022-11-20T15:17:59;2.80;99.90
16140;DHT22;8175;49.326;12.690;2022-11-20T15:20:27;2.80;99.90
16140;DHT22;8175;49.326;12.690;2022-11-20T15:22:53;2.80;99.90
16140;DHT22;8175;49.326;12.690;2022-11-20T15:25:19;2.80;99.90
16140;DHT22;8175;49.326;12.690;2022-11-20T15:27:48;2.80;99.90
16140;DHT22;8175;49.326;12.690;2022-11-20T15:30:17;2.80;99.90
16140;DHT22;8175;49.326;12.690;2022-11-20T15:32:44;2.80;99.90
16140;DHT22;8175;49.326;12.690;2022-11-20T15:35:10;2.80;99.90
16140;DHT22;8175;49.326;12.690;2022-11-20T15:37:37;2.80;99.90
16140;DHT22;8175;49.326;12.690;2022-11-20T15:40:03;2.70;99.90
16140;DHT22;8175;49.326;12.690;2022-11-20T15:42:29;2.70;99.90
16140;DHT22;8175;49.326;12.690;2022-11-20T15:44:55;2.60;99.90
16140;DHT22;8175;49.326;12.690;2022-11-20T15:47:25;2.50;99.90
16140;DHT22;8175;49.326;12.690;2022-11-20T15:49:51;2.40;99.90
16140;DHT22;8175;49.326;12.690;2022-11-20T15:52:17;2.30;99.90
16140;DHT22;8175;49.326;12.690;2022-11-20T15:54:42;2.20;99.90
16140;DHT22;8175;49.326;12.690;2022-11-20T15:57:08;2.10;99.90
16140;DHT22;8175;49.326;12.690;2022-11-20T15:59:34;2.10;99.90
16140;DHT22;8175;49.326;12.690;2022-11-20T16:02:02;2.10;99.90
16140;DHT22;8175;49.326;12.690;2022-11-20T16:04:28;2.00;99.90
16140;DHT22;8175;49.326;12.690;2022-11-20T16:06:53;2.00;99.90
16140;DHT22;8175;49.326;12.690;2022-11-20T16:09:19;2.00;99.90
16140;DHT22;8175;49.326;12.690;2022-11-20T16:11:45;2.00;99.90
16140;DHT22;8175;49.326;12.690;2022-11-20T16:14:11;1.90;99.90
16140;DHT22;8175;49.326;12.690;2022-11-20T16:16:55;1.90;99.90
16140;DHT22;8175;49.326;12.690;2022-11-20T16:19:21;1.90;99.90
16140;DHT22;8175;49.326;12.690;2022-11-20T16:21:46;1.90;99.90
16140;DHT22;8175;49.326;12.690;2022-11-20T16:24:14;1.90;99.90
16140;DHT22;8175;49.326;12.690;2022-11-20T16:26:40;1.90;99.90
16140;DHT22;8175;49.326;12.690;2022-11-20T16:29:06;1.90;99.90
16140;DHT22;8175;49.326;12.690;2022-11-20T16:31:33;1.80;99.90
16140;DHT22;8175;49.326;12.690;2022-11-20T16:34:00;1.80;99.90
16140;DHT22;8175;49.326;12.690;2022-11-20T16:36:27;1.90;99.90
16140;DHT22;8175;49.326;12.690;2022-11-20T16:38:59;1.90;99.90
16140;DHT22;8175;49.326;12.690;2022-11-20T16:41:27;1.90;99.90
16140;DHT22;8175;49.326;12.690;2022-11-20T16:43:54;1.90;99.90
16140;DHT22;8175;49.326;12.690;2022-11-20T16:46:23;1.90;99.90
16140;DHT22;8175;49.326;12.690;2022-11-20T16:49:00;1.90;99.90
16140;DHT22;8175;49.326;12.690;2022-11-20T16:51:27;1.80;99.90
16140;DHT22;8175;49.326;12.690;2022-11-20T16:53:54;1.90;99.90
16140;DHT22;8175;49.326;12.690;2022-11-20T16:56:22;1.90;99.90
16140;DHT22;8175;49.326;12.690;2022-11-20T16:58:49;1.90;99.90
16140;DHT22;8175;49.326;12.690;2022-11-20T17:01:20;1.80;99.90
16140;DHT22;8175;49.326;12.690;2022-11-20T17:03:52;1.80;99.90
16140;DHT22;8175;49.326;12.690;2022-11-20T17:06:20;1.80;99.90
16140;DHT22;8175;49.326;12.690;2022-11-20T17:08:46;1.80;99.90
16140;DHT22;8175;49.326;12.690;2022-11-20T17:11:17;1.80;99.90
16140;DHT22;8175;49.326;12.690;2022-11-20T17:13:44;1.80;99.90
16140;DHT22;8175;49.326;12.690;2022-11-20T17:16:14;1.70;99.90
16140;DHT22;8175;49.326;12.690;2022-11-20T17:18:40;1.70;99.90
16140;DHT22;8175;49.326;12.690;2022-11-20T17:21:07;1.70;99.90
16140;DHT22;8175;49.326;12.690;2022-11-20T17:23:35;1.70;99.90
16140;DHT22;8175;49.326;12.690;2022-11-20T17:26:05;1.80;99.90
16140;DHT22;8175;49.326;12.690;2022-11-20T17:28:31;1.80;99.90
16140;DHT22;8175;49.326;12.690;2022-11-20T17:31:01;1.80;99.90
16140;DHT22;8175;49.326;12.690;2022-11-20T17:33:27;1.90;99.90
16140;DHT22;8175;49.326;12.690;2022-11-20T17:35:54;1.90;99.90
16140;DHT22;8175;49.326;12.690;2022-11-20T17:38:19;1.80;99.90
16140;DHT22;8175;49.326;12.690;2022-11-20T17:40:45;1.80;99.90
16140;DHT22;8175;49.326;12.690;2022-11-20T17:43:11;1.80;99.90
16140;DHT22;8175;49.326;12.690;2022-11-20T17:45:37;1.80;99.90
16140;DHT22;8175;49.326;12.690;2022-11-20T17:48:03;1.80;99.90
16140;DHT22;8175;49.326;12.690;2022-11-20T17:50:28;1.80;99.90
16140;DHT22;8175;49.326;12.690;2022-11-20T17:52:54;1.80;99.90
16140;DHT22;8175;49.326;12.690;2022-11-20T17:55:20;1.80;99.90
16140;DHT22;8175;49.326;12.690;2022-11-20T17:57:46;1.90;99.90
16140;DHT22;8175;49.326;12.690;2022-11-20T18:00:19;1.80;99.90
16140;DHT22;8175;49.326;12.690;2022-11-20T18:02:44;1.70;99.90
16140;DHT22;8175;49.326;12.690;2022-11-20T18:05:10;1.60;99.90
16140;DHT22;8175;49.326;12.690;2022-11-20T18:07:36;1.60;99.90
16140;DHT22;8175;49.326;12.690;2022-11-20T18:10:04;1.70;99.90
16140;DHT22;8175;49.326;12.690;2022-11-20T18:12:30;1.70;99.90
16140;DHT22;8175;49.326;12.690;2022-11-20T18:14:56;1.70;99.90
16140;DHT22;8175;49.326;12.690;2022-11-20T18:17:22;1.70;99.90
16140;DHT22;8175;49.326;12.690;2022-11-20T18:19:48;1.70;99.90
16140;DHT22;8175;49.326;12.690;2022-11-20T18:22:16;1.70;99.90
16140;DHT22;8175;49.326;12.690;2022-11-20T18:24:43;1.70;99.90
16140;DHT22;8175;49.326;12.690;2022-11-20T18:27:16;1.80;99.90
16140;DHT22;8175;49.326;12.690;2022-11-20T18:29:42;1.80;99.90
16140;DHT22;8175;49.326;12.690;2022-11-20T18:32:09;1.80;99.90
16140;DHT22;8175;49.326;12.690;2022-11-20T18:34:35;1.80;99.90
16140;DHT22;8175;49.326;12.690;2022-11-20T18:37:00;1.90;99.90
16140;DHT22;8175;49.326;12.690;2022-11-20T18:39:26;1.90;99.90
16140;DHT22;8175;49.326;12.690;2022-11-20T18:41:52;1.90;99.90
16140;DHT22;8175;49.326;12.690;2022-11-20T18:44:36;1.90;99.90
16140;DHT22;8175;49.326;12.690;2022-11-20T18:47:19;1.90;99.90
16140;DHT22;8175;49.326;12.690;2022-11-20T18:49:47;1.80;99.90
16140;DHT22;8175;49.326;12.690;2022-11-20T18:52:39;1.90;99.90
16140;DHT22;8175;49.326;12.690;2022-11-20T18:55:05;1.90;99.90
16140;DHT22;8175;49.326;12.690;2022-11-20T18:57:31;1.90;99.90
16140;DHT22;8175;49.326;12.690;2022-11-20T18:59:57;2.00;99.90
16140;DHT22;8175;49.326;12.690;2022-11-20T19:02:25;1.90;99.90
16140;DHT22;8175;49.326;12.690;2022-11-20T19:04:52;1.90;99.90
16140;DHT22;8175;49.326;12.690;2022-11-20T19:07:18;1.90;99.90
16140;DHT22;8175;49.326;12.690;2022-11-20T19:09:47;1.80;99.90
16140;DHT22;8175;49.326;12.690;2022-11-20T19:12:13;1.80;99.90
16140;DHT22;8175;49.326;12.690;2022-11-20T19:14:39;1.90;99.90
16140;DHT22;8175;49.326;12.690;2022-11-20T19:17:06;1.90;99.90
16140;DHT22;8175;49.326;12.690;2022-11-20T19:19:33;1.90;99.90
16140;DHT22;8175;49.326;12.690;2022-11-20T19:21:58;2.00;99.90
16140;DHT22;8175;49.326;12.690;2022-11-20T19:24:24;2.00;99.90
16140;DHT22;8175;49.326;12.690;2022-11-20T19:26:52;2.00;99.90
16140;DHT22;8175;49.326;12.690;2022-11-20T19:29:19;2.10;99.90
16140;DHT22;8175;49.326;12.690;2022-11-20T19:31:45;2.10;99.90
16140;DHT22;8175;49.326;12.690;2022-11-20T19:34:11;2.10;99.90
16140;DHT22;8175;49.326;12.690;2022-11-20T19:36:39;2.10;99.90
16140;DHT22;8175;49.326;12.690;2022-11-20T19:39:05;2.10;99.90
16140;DHT22;8175;49.326;12.690;2022-11-20T19:41:34;2.10;99.90
16140;DHT22;8175;49.326;12.690;2022-11-20T19:44:05;2.10;99.90
16140;DHT22;8175;49.326;12.690;2022-11-20T19:46:32;2.10;99.90
16140;DHT22;8175;49.326;12.690;2022-11-20T19:48:58;2.10;99.90
16140;DHT22;8175;49.326;12.690;2022-11-20T19:51:29;2.10;99.90
16140;DHT22;8175;49.326;12.690;2022-11-20T19:53:58;2.00;99.90
16140;DHT22;8175;49.326;12.690;2022-11-20T19:56:26;2.00;99.90
16140;DHT22;8175;49.326;12.690;2022-11-20T19:58:53;2.00;99.90
16140;DHT22;8175;49.326;12.690;2022-11-20T20:01:21;2.00;99.90
16140;DHT22;8175;49.326;12.690;2022-11-20T20:03:48;2.00;99.90
16140;DHT22;8175;49.326;12.690;2022-11-20T20:06:15;2.00;99.90
16140;DHT22;8175;49.326;12.690;2022-11-20T20:08:42;2.00;99.90
16140;DHT22;8175;49.326;12.690;2022-11-20T20:11:17;2.00;99.90
16140;DHT22;8175;49.326;12.690;2022-11-20T20:13:43;1.90;99.90
16140;DHT22;8175;49.326;12.690;2022-11-20T20:16:15;1.90;99.90
16140;DHT22;8175;49.326;12.690;2022-11-20T20:18:41;1.90;99.90
16140;DHT22;8175;49.326;12.690;2022-11-20T20:21:13;1.80;99.90
16140;DHT22;8175;49.326;12.690;2022-11-20T20:23:39;1.90;99.90
16140;DHT22;8175;49.326;12.690;2022-11-20T20:26:06;2.00;99.90
16140;DHT22;8175;49.326;12.690;2022-11-20T20:28:33;2.00;99.90
16140;DHT22;8175;49.326;12.690;2022-11-20T20:31:11;2.10;99.90
16140;DHT22;8175;49.326;12.690;2022-11-20T20:33:38;2.20;99.90
16140;DHT22;8175;49.326;12.690;2022-11-20T20:36:05;2.20;99.90
16140;DHT22;8175;49.326;12.690;2022-11-20T20:38:31;2.30;99.90
16140;DHT22;8175;49.326;12.690;2022-11-20T20:40:57;2.30;99.90
16140;DHT22;8175;49.326;12.690;2022-11-20T20:43:23;2.40;99.90
16140;DHT22;8175;49.326;12.690;2022-11-20T20:45:49;2.40;99.90
16140;DHT22;8175;49.326;12.690;2022-11-20T20:48:17;2.40;99.90
16140;DHT22;8175;49.326;12.690;2022-11-20T20:50:57;2.50;99.90
16140;DHT22;8175;49.326;12.690;2022-11-20T20:53:23;2.40;99.90
16140;DHT22;8175;49.326;12.690;2022-11-20T20:55:56;2.50;99.90
16140;DHT22;8175;49.326;12.690;2022-11-20T20:58:23;2.60;99.90
16140;DHT22;8175;49.326;12.690;2022-11-20T21:00:49;2.60;99.90
16140;DHT22;8175;49.326;12.690;2022-11-20T21:03:14;2.60;99.90
16140;DHT22;8175;49.326;12.690;2022-11-20T21:05:40;2.70;99.90
16140;DHT22;8175;49.326;12.690;2022-11-20T21:08:06;2.70;99.90
16140;DHT22;8175;49.326;12.690;2022-11-20T21:10:47;2.70;99.90
16140;DHT22;8175;49.326;12.690;2022-11-20T21:13:13;2.70;99.90
16140;DHT22;8175;49.326;12.690;2022-11-20T21:15:39;2.70;99.90
16140;DHT22;8175;49.326;12.690;2022-11-20T21:18:05;2.70;99.90
16140;DHT22;8175;49.326;12.690;2022-11-20T21:20:31;2.60;99.90
16140;DHT22;8175;49.326;12.690;2022-11-20T21:23:15;2.70;99.90
16140;DHT22;8175;49.326;12.690;2022-11-20T21:25:41;2.70;99.90
16140;DHT22;8175;49.326;12.690;2022-11-20T21:28:07;2.70;99.90
16140;DHT22;8175;49.326;12.690;2022-11-20T21:30:33;2.60;99.90
16140;DHT22;8175;49.326;12.690;2022-11-20T21:32:59;2.70;99.90
16140;DHT22;8175;49.326;12.690;2022-11-20T21:35:25;2.80;99.90
16140;DHT22;8175;49.326;12.690;2022-11-20T21:37:51;2.80;99.90
16140;DHT22;8175;49.326;12.690;2022-11-20T21:40:17;2.90;99.90
16140;DHT22;8175;49.326;12.690;2022-11-20T21:42:42;2.90;99.90
16140;DHT22;8175;49.326;12.690;2022-11-20T21:45:08;2.80;99.90
16140;DHT22;8175;49.326;12.690;2022-11-20T21:47:34;2.80;99.90
16140;DHT22;8175;49.326;12.690;2022-11-20T21:49:59;2.80;99.90
16140;DHT22;8175;49.326;12.690;2022-11-20T21:52:25;2.60;99.90
16140;DHT22;8175;49.326;12.690;2022-11-20T21:54:51;2.60;99.90
16140;DHT22;8175;49.326;12.690;2022-11-20T21:57:16;2.50;99.90
16140;DHT22;8175;49.326;12.690;2022-11-20T21:59:42;2.60;99.90
16140;DHT22;8175;49.326;12.690;2022-11-20T22:02:11;2.70;99.90
16140;DHT22;8175;49.326;12.690;2022-11-20T22:04:37;2.70;99.90
16140;DHT22;8175;49.326;12.690;2022-11-20T22:07:05;2.70;99.90
16140;DHT22;8175;49.326;12.690;2022-11-20T22:09:30;2.80;99.90
16140;DHT22;8175;49.326;12.690;2022-11-20T22:11:56;2.80;99.90
16140;DHT22;8175;49.326;12.690;2022-11-20T22:14:22;2.80;99.90
16140;DHT22;8175;49.326;12.690;2022-11-20T22:16:49;2.90;99.90
16140;DHT22;8175;49.326;12.690;2022-11-20T22:19:16;2.80;99.90
16140;DHT22;8175;49.326;12.690;2022-11-20T22:21:41;2.90;99.90
16140;DHT22;8175;49.326;12.690;2022-11-20T22:24:11;2.90;99.90
16140;DHT22;8175;49.326;12.690;2022-11-20T22:26:37;2.90;99.90
16140;DHT22;8175;49.326;12.690;2022-11-20T22:29:03;2.90;99.90
16140;DHT22;8175;49.326;12.690;2022-11-20T22:31:29;2.90;99.90
16140;DHT22;8175;49.326;12.690;2022-11-20T22:33:57;3.00;99.90
16140;DHT22;8175;49.326;12.690;2022-11-20T22:36:24;3.00;99.90
16140;DHT22;8175;49.326;12.690;2022-11-20T22:38:50;3.00;99.90
16140;DHT22;8175;49.326;12.690;2022-11-20T22:41:22;3.00;99.90
16140;DHT22;8175;49.326;12.690;2022-11-20T22:43:59;3.00;99.90
16140;DHT22;8175;49.326;12.690;2022-11-20T22:46:27;3.00;99.90
16140;DHT22;8175;49.326;12.690;2022-11-20T22:48:56;3.00;99.90
16140;DHT22;8175;49.326;12.690;2022-11-20T22:51:24;3.00;99.90
16140;DHT22;8175;49.326;12.690;2022-11-20T22:53:51;3.00;99.90
16140;DHT22;8175;49.326;12.690;2022-11-20T22:56:17;3.00;99.90
16140;DHT22;8175;49.326;12.690;2022-11-20T22:58:45;3.00;99.90
16140;DHT22;8175;49.326;12.690;2022-11-20T23:01:19;3.00;99.90
16140;DHT22;8175;49.326;12.690;2022-11-20T23:03:47;3.00;99.90
16140;DHT22;8175;49.326;12.690;2022-11-20T23:06:13;3.00;99.90
16140;DHT22;8175;49.326;12.690;2022-11-20T23:08:40;2.90;99.90
16140;DHT22;8175;49.326;12.690;2022-11-20T23:11:09;2.90;99.90
16140;DHT22;8175;49.326;12.690;2022-11-20T23:13:35;2.90;99.90
16140;DHT22;8175;49.326;12.690;2022-11-20T23:16:15;2.90;99.90
16140;DHT22;8175;49.326;12.690;2022-11-20T23:18:42;2.90;99.90
16140;DHT22;8175;49.326;12.690;2022-11-20T23:21:10;2.80;99.90
16140;DHT22;8175;49.326;12.690;2022-11-20T23:23:36;2.80;99.90
16140;DHT22;8175;49.326;12.690;2022-11-20T23:26:05;2.80;99.90
16140;DHT22;8175;49.326;12.690;2022-11-20T23:28:31;2.70;99.90
16140;DHT22;8175;49.326;12.690;2022-11-20T23:30:57;2.70;99.90
16140;DHT22;8175;49.326;12.690;2022-11-20T23:33:23;2.70;99.90
16140;DHT22;8175;49.326;12.690;2022-11-20T23:35:49;2.60;99.90
16140;DHT22;8175;49.326;12.690;2022-11-20T23:38:15;2.60;99.90
16140;DHT22;8175;49.326;12.690;2022-11-20T23:40:41;2.60;99.90
16140;DHT22;8175;49.326;12.690;2022-11-20T23:43:10;2.60;99.90
16140;DHT22;8175;49.326;12.690;2022-11-20T23:45:43;2.50;99.90
16140;DHT22;8175;49.326;12.690;2022-11-20T23:48:09;2.50;99.90
16140;DHT22;8175;49.326;12.690;2022-11-20T23:50:35;2.40;99.90
16140;DHT22;8175;49.326;12.690;2022-11-20T23:53:01;2.40;99.90
16140;DHT22;8175;49.326;12.690;2022-11-20T23:55:27;2.40;99.90
16140;DHT22;8175;49.326;12.690;2022-11-20T23:57:53;2.40;99.90
